createdAt,value
2019-02-27T00:01:20.806Z,4.02
2019-02-27T00:03:50.470Z,4.01
2019-02-27T00:06:19.817Z,3.94
2019-02-27T00:08:49.525Z,3.92
2019-02-27T00:11:18.852Z,3.83
2019-02-27T00:13:49.355Z,3.79
2019-02-27T00:16:18.707Z,3.77
2019-02-27T00:18:48.345Z,3.71
2019-02-27T00:21:19.318Z,3.70
2019-02-27T00:23:49.085Z,3.61
2019-02-27T00:26:18.446Z,3.55
2019-02-27T00:29:07.202Z,3.51
2019-02-27T00:31:36.848Z,3.50
2019-02-27T00:34:06.490Z,3.39
2019-02-27T00:36:35.817Z,3.41
2019-02-27T00:39:05.528Z,3.37
2019-02-27T00:41:34.859Z,3.32
2019-02-27T00:44:04.528Z,3.20
2019-02-27T00:46:34.092Z,3.23
2019-02-27T00:49:03.805Z,3.29
2019-02-27T00:51:33.511Z,3.24
2019-02-27T00:54:03.116Z,3.21
2019-02-27T00:56:32.818Z,3.26
2019-02-27T00:59:02.426Z,3.31
2019-02-27T01:01:32.044Z,3.28
2019-02-27T01:04:02.452Z,3.15
2019-02-27T01:06:31.873Z,3.17
2019-02-27T01:09:03.892Z,3.12
2019-02-27T01:11:32.829Z,3.19
2019-02-27T01:14:04.165Z,3.14
2019-02-27T01:16:33.565Z,2.96
2019-02-27T01:19:04.731Z,3.01
2019-02-27T01:21:34.335Z,2.90
2019-02-27T01:24:03.645Z,2.92
2019-02-27T01:26:33.001Z,2.79
2019-02-27T01:29:02.334Z,2.73
2019-02-27T01:31:31.740Z,2.71
2019-02-27T01:34:01.431Z,2.67
2019-02-27T01:36:30.798Z,2.65
2019-02-27T01:39:00.145Z,2.65
2019-02-27T01:41:29.478Z,2.71
2019-02-27T01:43:59.151Z,2.71
2019-02-27T01:46:28.750Z,2.73
2019-02-27T01:48:58.451Z,2.61
2019-02-27T01:51:28.185Z,2.61
2019-02-27T01:53:58.323Z,2.56
2019-02-27T01:56:29.095Z,2.50
2019-02-27T01:58:59.035Z,2.45
2019-02-27T02:01:30.293Z,2.43
2019-02-27T02:03:59.442Z,2.52
2019-02-27T02:06:32.013Z,2.41
2019-02-27T02:09:31.561Z,2.28
2019-02-27T02:12:08.796Z,2.28
2019-02-27T02:15:32.451Z,2.24
2019-02-27T02:18:28.720Z,2.27
2019-02-27T02:21:34.326Z,2.27
2019-02-27T02:24:41.320Z,2.20
2019-02-27T02:27:24.492Z,2.17
2019-02-27T02:30:48.574Z,2.14
2019-02-27T02:33:41.034Z,2.05
2019-02-27T02:36:24.787Z,1.98
2019-02-27T02:39:17.631Z,2.00
2019-02-27T02:41:59.170Z,1.92
2019-02-27T02:44:33.707Z,1.83
2019-02-27T02:47:19.584Z,1.86
2019-02-27T02:50:17.467Z,1.88
2019-02-27T02:53:00.328Z,1.93
2019-02-27T02:56:00.167Z,1.96
2019-02-27T02:58:47.158Z,1.96
2019-02-27T03:01:28.092Z,1.99
2019-02-27T03:04:12.765Z,2.01
2019-02-27T03:07:12.426Z,1.98
2019-02-27T03:10:07.153Z,1.90
2019-02-27T03:13:07.117Z,1.85
2019-02-27T03:15:54.818Z,1.80
2019-02-27T03:18:50.149Z,1.80
2019-02-27T03:21:51.257Z,1.82
2019-02-27T03:24:45.884Z,1.83
2019-02-27T03:27:56.950Z,1.82
2019-02-27T03:30:37.148Z,1.79
2019-02-27T03:33:39.050Z,1.72
2019-02-27T03:36:46.793Z,1.76
2019-02-27T03:39:24.403Z,1.64
2019-02-27T03:42:07.809Z,1.48
2019-02-27T03:44:45.108Z,1.36
2019-02-27T03:47:31.267Z,1.33
2019-02-27T03:50:31.003Z,1.36
2019-02-27T03:53:13.493Z,1.37
2019-02-27T03:56:10.059Z,1.40
2019-02-27T03:59:07.247Z,1.46
2019-02-27T04:01:50.185Z,1.42
2019-02-27T04:04:54.350Z,1.47
2019-02-27T04:07:54.479Z,1.47
2019-02-27T04:10:23.814Z,1.45
2019-02-27T04:12:53.152Z,1.33
2019-02-27T04:15:22.856Z,1.34
2019-02-27T04:17:52.363Z,1.37
2019-02-27T04:20:21.955Z,1.38
2019-02-27T04:22:51.304Z,1.50
2019-02-27T04:25:20.617Z,1.46
2019-02-27T04:27:55.288Z,1.32
2019-02-27T04:30:21.704Z,1.20
2019-02-27T04:32:51.026Z,1.20
2019-02-27T04:35:20.711Z,1.16
2019-02-27T04:37:53.859Z,1.07
2019-02-27T04:40:21.111Z,1.02
2019-02-27T04:42:50.562Z,1.00
2019-02-27T04:45:20.162Z,1.08
2019-02-27T04:47:49.563Z,1.04
2019-02-27T04:50:19.138Z,1.13
2019-02-27T04:52:48.453Z,1.12
2019-02-27T04:55:18.120Z,1.04
2019-02-27T04:57:47.901Z,0.92
2019-02-27T05:00:17.211Z,1.11
2019-02-27T05:02:47.112Z,1.31
2019-02-27T05:05:16.446Z,1.39
2019-02-27T05:07:45.795Z,1.28
2019-02-27T05:10:15.561Z,1.22
2019-02-27T05:12:47.837Z,1.10
2019-02-27T05:15:16.286Z,1.07
2019-02-27T05:17:45.970Z,0.96
2019-02-27T05:20:15.696Z,0.94
2019-02-27T05:22:45.375Z,0.85
2019-02-27T05:25:15.171Z,0.83
2019-02-27T05:27:44.899Z,0.86
2019-02-27T05:30:14.619Z,0.90
2019-02-27T05:32:43.968Z,0.97
2019-02-27T05:35:13.285Z,0.98
2019-02-27T05:37:42.595Z,0.94
2019-02-27T05:40:12.231Z,0.96
2019-02-27T05:42:41.583Z,0.92
2019-02-27T05:45:12.904Z,0.85
2019-02-27T05:47:45.835Z,0.82
2019-02-27T05:50:14.013Z,0.75
2019-02-27T05:52:48.314Z,0.77
2019-02-27T05:55:14.761Z,0.84
2019-02-27T05:57:44.141Z,0.82
2019-02-27T06:00:19.648Z,0.75
2019-02-27T06:02:49.216Z,0.73
2019-02-27T06:05:18.823Z,0.71
2019-02-27T06:07:48.181Z,0.69
2019-02-27T06:10:20.144Z,0.70
2019-02-27T06:12:49.279Z,0.78
2019-02-27T06:15:19.533Z,0.81
2019-02-27T06:17:49.738Z,0.83
2019-02-27T06:20:19.282Z,0.94
2019-02-27T06:22:48.687Z,0.93
2019-02-27T06:25:23.332Z,1.04
2019-02-27T06:27:50.533Z,1.00
2019-02-27T06:30:21.743Z,1.02
2019-02-27T06:32:51.360Z,1.08
2019-02-27T06:35:20.960Z,1.14
2019-02-27T06:37:51.337Z,1.27
2019-02-27T06:40:21.098Z,1.29
2019-02-27T06:42:53.649Z,1.33
2019-02-27T06:45:21.862Z,1.36
2019-02-27T06:47:51.285Z,1.40
2019-02-27T06:50:25.240Z,1.42
2019-02-27T06:52:51.912Z,1.57
2019-02-27T06:55:21.271Z,1.52
2019-02-27T06:57:50.909Z,1.59
2019-02-27T07:00:47.018Z,1.76
2019-02-27T07:03:16.355Z,1.82
2019-02-27T07:05:48.276Z,1.82
2019-02-27T07:08:17.112Z,1.77
2019-02-27T07:10:46.520Z,1.75
2019-02-27T07:13:16.196Z,1.80
2019-02-27T07:15:48.172Z,1.94
2019-02-27T07:18:17.261Z,2.04
2019-02-27T07:20:46.617Z,2.13
2019-02-27T07:23:16.281Z,2.23
2019-02-27T07:25:45.596Z,2.31
2019-02-27T07:28:15.050Z,2.24
2019-02-27T07:30:44.462Z,2.28
2019-02-27T07:33:13.793Z,2.32
2019-02-27T07:35:43.119Z,2.48
2019-02-27T07:38:12.530Z,2.61
2019-02-27T07:40:42.926Z,2.51
2019-02-27T07:43:12.882Z,2.67
2019-02-27T07:45:42.773Z,2.75
2019-02-27T07:48:13.318Z,2.77
2019-02-27T07:50:43.157Z,2.78
2019-02-27T07:53:17.442Z,2.94
2019-02-27T07:55:44.319Z,3.24
2019-02-27T07:58:13.928Z,3.29
2019-02-27T08:00:43.343Z,3.44
2019-02-27T08:03:13.143Z,3.45
2019-02-27T08:05:42.755Z,3.41
2019-02-27T08:08:12.452Z,3.53
2019-02-27T08:10:42.051Z,3.58
2019-02-27T08:13:11.457Z,3.65
2019-02-27T08:15:41.408Z,3.89
2019-02-27T08:18:10.874Z,3.99
2019-02-27T08:20:40.602Z,4.09
2019-02-27T08:23:09.976Z,4.39
2019-02-27T08:25:39.328Z,4.37
2019-02-27T08:28:08.957Z,4.51
2019-02-27T08:30:38.358Z,4.63
2019-02-27T08:33:08.445Z,4.68
2019-02-27T08:35:38.693Z,4.76
2019-02-27T08:38:08.016Z,4.74
2019-02-27T08:40:37.703Z,4.65
2019-02-27T08:43:07.029Z,4.75
2019-02-27T08:45:36.637Z,4.92
2019-02-27T08:48:06.010Z,5.11
2019-02-27T08:50:35.619Z,5.18
2019-02-27T08:53:04.962Z,5.17
2019-02-27T08:55:39.032Z,5.31
2019-02-27T08:58:07.243Z,5.46
2019-02-27T09:00:36.898Z,5.52
2019-02-27T09:03:06.279Z,5.71
2019-02-27T09:05:35.935Z,5.80
2019-02-27T09:08:07.367Z,5.96
2019-02-27T09:10:37.069Z,6.09
2019-02-27T09:13:06.410Z,6.34
2019-02-27T09:15:35.749Z,6.23
2019-02-27T09:18:05.085Z,6.64
2019-02-27T09:20:34.416Z,6.81
2019-02-27T09:23:03.799Z,6.98
2019-02-27T09:25:33.164Z,7.00
2019-02-27T09:28:03.526Z,7.15
2019-02-27T09:30:33.001Z,7.44
2019-02-27T09:33:02.366Z,7.63
2019-02-27T09:35:33.328Z,7.47
2019-02-27T09:38:02.986Z,8.03
2019-02-27T09:40:32.432Z,8.03
2019-02-27T09:43:02.033Z,8.17
2019-02-27T09:45:35.563Z,8.23
2019-02-27T09:48:05.736Z,8.64
2019-02-27T09:50:41.656Z,9.07
2019-02-27T09:53:11.196Z,9.51
2019-02-27T09:55:43.126Z,10.28
2019-02-27T09:58:13.501Z,11.05
2019-02-27T10:00:59.157Z,11.97
2019-02-27T10:03:29.000Z,12.63
2019-02-27T10:05:58.580Z,13.56
2019-02-27T10:08:27.940Z,14.42
2019-02-27T10:10:57.517Z,14.57
2019-02-27T10:13:26.864Z,15.58
2019-02-27T10:16:00.577Z,16.04
2019-02-27T10:18:27.333Z,15.85
2019-02-27T10:20:56.936Z,16.29
2019-02-27T10:23:30.239Z,16.53
2019-02-27T10:25:57.944Z,16.89
2019-02-27T10:28:27.549Z,16.63
2019-02-27T10:30:57.161Z,16.49
2019-02-27T10:33:26.804Z,17.07
2019-02-27T10:35:56.454Z,17.27
2019-02-27T10:38:26.813Z,17.10
2019-02-27T10:40:56.179Z,16.94
2019-02-27T10:43:25.513Z,17.16
2019-02-27T10:45:55.102Z,18.02
2019-02-27T10:48:24.727Z,18.62
2019-02-27T10:50:54.129Z,19.17
2019-02-27T10:53:27.163Z,19.78
2019-02-27T10:55:56.092Z,19.92
2019-02-27T10:58:25.519Z,19.97
2019-02-27T11:00:55.256Z,20.90
2019-02-27T11:03:27.027Z,19.87
2019-02-27T11:05:55.711Z,20.99
2019-02-27T11:08:28.886Z,20.16
2019-02-27T11:10:56.151Z,21.30
2019-02-27T11:13:25.853Z,21.94
2019-02-27T11:15:55.484Z,21.03
2019-02-27T11:18:24.829Z,20.46
2019-02-27T11:20:55.719Z,21.34
2019-02-27T11:25:56.995Z,21.86
2019-02-27T11:28:25.217Z,22.42
2019-02-27T11:30:54.555Z,22.70
2019-02-27T11:33:25.827Z,22.79
2019-02-27T11:35:54.956Z,22.37
2019-02-27T11:38:25.341Z,22.63
2019-02-27T11:40:55.141Z,22.98
2019-02-27T11:43:24.477Z,23.12
2019-02-27T11:45:57.497Z,23.16
2019-02-27T11:48:25.182Z,22.53
2019-02-27T11:50:54.782Z,22.91
2019-02-27T11:53:24.125Z,23.17
2019-02-27T11:55:53.484Z,22.36
2019-02-27T11:58:23.143Z,23.10
2019-02-27T12:00:52.576Z,22.93
2019-02-27T12:03:21.993Z,23.41
2019-02-27T12:05:51.390Z,23.53
2019-02-27T12:08:22.430Z,23.35
2019-02-27T12:10:52.156Z,23.39
2019-02-27T12:13:21.550Z,22.05
2019-02-27T12:15:51.168Z,22.82
2019-02-27T12:18:20.890Z,22.41
2019-02-27T12:20:53.228Z,22.45
2019-02-27T12:23:21.279Z,22.87
2019-02-27T12:25:50.949Z,23.23
2019-02-27T12:28:20.866Z,22.22
2019-02-27T12:30:50.193Z,22.53
2019-02-27T12:33:19.842Z,22.61
2019-02-27T12:35:49.472Z,23.11
2019-02-27T12:38:18.803Z,23.14
2019-02-27T12:40:48.473Z,22.87
2019-02-27T12:43:18.566Z,22.67
2019-02-27T12:45:48.022Z,21.42
2019-02-27T12:48:17.683Z,20.90
2019-02-27T12:50:47.032Z,20.48
2019-02-27T12:53:20.668Z,20.44
2019-02-27T12:55:47.756Z,20.15
2019-02-27T12:58:17.098Z,19.39
2019-02-27T13:00:46.426Z,19.27
2019-02-27T13:03:16.154Z,18.57
2019-02-27T13:05:45.481Z,18.56
2019-02-27T13:08:16.359Z,18.50
2019-02-27T13:10:46.205Z,18.52
2019-02-27T13:13:15.896Z,18.18
2019-02-27T13:15:45.506Z,18.18
2019-02-27T13:18:15.118Z,18.24
2019-02-27T13:20:45.678Z,18.20
2019-02-27T13:23:15.698Z,18.20
2019-02-27T13:25:44.995Z,17.84
2019-02-27T13:28:15.565Z,17.76
2019-02-27T13:30:45.009Z,17.84
2019-02-27T13:33:14.354Z,17.60
2019-02-27T13:35:43.750Z,17.47
2019-02-27T13:38:17.478Z,17.41
2019-02-27T13:40:44.481Z,17.37
2019-02-27T13:43:13.835Z,17.32
2019-02-27T13:45:47.379Z,17.24
2019-02-27T13:48:14.337Z,17.18
2019-02-27T13:50:43.686Z,17.20
2019-02-27T13:53:13.449Z,17.12
2019-02-27T13:55:45.364Z,17.20
2019-02-27T13:58:13.916Z,17.38
2019-02-27T14:00:43.549Z,17.44
2019-02-27T14:03:13.408Z,17.08
2019-02-27T14:05:42.933Z,17.06
2019-02-27T14:08:12.577Z,17.01
2019-02-27T14:10:42.275Z,17.13
2019-02-27T14:13:11.992Z,17.21
2019-02-27T14:15:41.313Z,17.26
2019-02-27T14:18:13.370Z,17.23
2019-02-27T14:20:42.337Z,17.20
2019-02-27T14:23:11.938Z,17.28
2019-02-27T14:25:43.190Z,17.39
2019-02-27T14:28:12.902Z,17.37
2019-02-27T14:30:49.632Z,17.40
2019-02-27T14:33:20.438Z,17.31
2019-02-27T14:35:50.235Z,17.38
2019-02-27T14:38:21.929Z,17.37
2019-02-27T14:40:51.378Z,17.41
2019-02-27T14:43:20.985Z,17.14
2019-02-27T14:45:50.910Z,17.24
2019-02-27T14:48:21.524Z,17.32
2019-02-27T14:50:51.889Z,17.35
2019-02-27T14:53:21.305Z,17.44
2019-02-27T14:55:50.634Z,17.37
2019-02-27T14:58:24.057Z,17.37
2019-02-27T15:00:51.306Z,17.33
2019-02-27T15:03:21.031Z,17.32
2019-02-27T15:05:50.390Z,17.23
2019-02-27T15:08:19.726Z,17.16
2019-02-27T15:10:49.049Z,17.16
2019-02-27T15:13:18.445Z,17.13
2019-02-27T15:15:47.818Z,17.07
2019-02-27T15:25:19.816Z,16.74
2019-02-27T15:27:58.337Z,16.75
2019-02-27T15:30:32.743Z,16.54
2019-02-27T15:33:04.886Z,16.56
2019-02-27T15:35:33.503Z,16.24
2019-02-27T15:38:02.839Z,16.24
2019-02-27T15:40:32.192Z,16.08
2019-02-27T15:43:10.714Z,16.03
2019-02-27T15:45:32.889Z,15.98
2019-02-27T15:48:06.644Z,16.04
2019-02-27T15:50:36.092Z,15.96
2019-02-27T15:53:05.770Z,15.93
2019-02-27T15:55:35.697Z,15.65
2019-02-27T15:58:06.551Z,15.64
2019-02-27T16:00:36.225Z,15.58
2019-02-27T16:03:10.827Z,15.50
2019-02-27T16:05:36.613Z,15.46
2019-02-27T16:08:06.281Z,15.40
2019-02-27T16:10:35.992Z,15.28
2019-02-27T16:13:05.598Z,15.31
2019-02-27T16:15:34.978Z,15.10
2019-02-27T16:18:05.216Z,15.02
2019-02-27T16:20:34.707Z,14.92
2019-02-27T16:23:05.223Z,14.81
2019-02-27T16:25:34.727Z,14.78
2019-02-27T16:28:04.041Z,14.70
2019-02-27T16:30:34.780Z,14.56
2019-02-27T16:33:04.126Z,14.48
2019-02-27T16:35:33.443Z,14.39
2019-02-27T16:38:03.080Z,14.32
2019-02-27T16:40:32.434Z,14.26
2019-02-27T16:43:02.110Z,14.16
2019-02-27T16:45:39.584Z,14.11
2019-02-27T16:48:11.111Z,14.03
2019-02-27T16:50:39.982Z,13.93
2019-02-27T16:53:09.651Z,13.83
2019-02-27T16:55:39.642Z,13.74
2019-02-27T16:58:09.088Z,13.66
2019-02-27T17:00:40.054Z,13.58
2019-02-27T17:03:13.064Z,13.48
2019-02-27T17:05:43.120Z,13.41
2019-02-27T17:08:12.059Z,13.31
2019-02-27T17:10:42.666Z,13.23
2019-02-27T17:13:14.862Z,13.16
2019-02-27T17:15:43.475Z,13.07
2019-02-27T17:18:12.893Z,12.99
2019-02-27T17:20:45.788Z,12.90
2019-02-27T17:23:13.495Z,12.82
2019-02-27T17:25:44.854Z,12.73
2019-02-27T17:28:14.461Z,12.63
2019-02-27T17:30:43.807Z,12.53
2019-02-27T17:33:13.182Z,12.45
2019-02-27T17:35:42.494Z,12.34
2019-02-27T17:38:13.721Z,12.28
2019-02-27T17:40:42.921Z,12.16
2019-02-27T17:43:12.253Z,12.06
2019-02-27T17:45:44.327Z,12.14
2019-02-27T17:48:13.127Z,11.93
2019-02-27T17:50:42.779Z,11.71
2019-02-27T17:53:12.419Z,11.59
2019-02-27T17:55:42.554Z,11.49
2019-02-27T17:58:12.258Z,11.41
2019-02-27T18:00:50.115Z,11.31
2019-02-27T18:03:17.532Z,11.23
2019-02-27T18:05:47.156Z,11.10
2019-02-27T18:08:17.187Z,11.04
2019-02-27T18:10:46.573Z,10.95
2019-02-27T18:13:15.898Z,10.86
2019-02-27T18:15:45.248Z,10.87
2019-02-27T18:18:14.821Z,10.94
2019-02-27T18:20:44.161Z,10.71
2019-02-27T18:23:13.491Z,10.53
2019-02-27T18:25:42.834Z,10.42
2019-02-27T18:28:12.424Z,10.32
2019-02-27T18:30:42.769Z,10.53
2019-02-27T18:33:14.271Z,10.32
2019-02-27T18:35:43.774Z,10.14
2019-02-27T18:38:13.357Z,10.13
2019-02-27T18:40:42.921Z,10.08
2019-02-27T18:43:13.002Z,10.05
2019-02-27T18:45:42.318Z,9.89
2019-02-27T18:48:11.638Z,10.22
2019-02-27T18:50:41.260Z,10.24
2019-02-27T18:53:13.467Z,10.16
2019-02-27T18:55:44.000Z,9.83
2019-02-27T18:58:13.522Z,9.71
2019-02-27T19:00:42.860Z,9.61
2019-02-27T19:03:13.152Z,9.56
2019-02-27T19:05:42.514Z,9.53
2019-02-27T19:08:12.106Z,9.51
2019-02-27T19:10:42.651Z,9.56
2019-02-27T19:13:12.315Z,9.48
2019-02-27T19:15:45.453Z,9.39
2019-02-27T19:18:13.197Z,9.29
2019-02-27T19:20:48.589Z,9.36
2019-02-27T19:23:18.569Z,9.26
2019-02-27T19:25:48.208Z,9.20
2019-02-27T19:28:17.613Z,9.17
2019-02-27T19:30:47.222Z,9.09
2019-02-27T19:33:16.847Z,9.06
2019-02-27T19:35:46.432Z,9.00
2019-02-27T19:38:16.060Z,9.00
2019-02-27T19:40:45.405Z,8.93
2019-02-27T19:43:15.011Z,8.88
2019-02-27T19:45:44.656Z,8.80
2019-02-27T19:48:14.005Z,8.75
2019-02-27T19:50:46.371Z,8.69
2019-02-27T19:53:14.683Z,8.68
2019-02-27T19:55:44.286Z,8.65
2019-02-27T19:58:17.260Z,8.62
2019-02-27T20:00:48.440Z,8.55
2019-02-27T20:03:16.282Z,8.59
2019-02-27T20:05:45.899Z,8.56
2019-02-27T20:08:15.569Z,8.41
2019-02-27T20:10:45.250Z,8.35
2019-02-27T20:13:14.932Z,8.28
2019-02-27T20:15:45.479Z,8.32
2019-02-27T20:18:15.792Z,8.26
2019-02-27T20:20:45.407Z,8.24
2019-02-27T20:23:15.076Z,8.19
2019-02-27T20:25:44.591Z,8.10
2019-02-27T20:28:13.985Z,7.97
2019-02-27T20:30:43.578Z,7.91
2019-02-27T20:33:16.455Z,7.88
2019-02-27T20:35:46.020Z,7.84
2019-02-27T20:38:16.877Z,7.77
2019-02-27T20:40:46.564Z,7.73
2019-02-27T20:43:16.184Z,7.75
2019-02-27T20:45:45.750Z,7.68
2019-02-27T20:48:15.383Z,7.57
2019-02-27T20:50:52.329Z,7.57
2019-02-27T20:53:21.858Z,7.45
2019-02-27T20:55:51.555Z,7.40
2019-02-27T20:58:22.152Z,7.27
2019-02-27T21:00:51.985Z,7.34
2019-02-27T21:03:26.660Z,7.29
2019-02-27T21:05:52.641Z,7.20
2019-02-27T21:08:21.976Z,7.15
2019-02-27T21:10:54.728Z,7.04
2019-02-27T21:13:22.378Z,7.04
2019-02-27T21:15:52.076Z,7.15
2019-02-27T21:18:21.672Z,7.03
2019-02-27T21:20:51.042Z,7.03
2019-02-27T21:23:20.707Z,7.06
2019-02-27T21:25:50.312Z,7.06
2019-02-27T21:28:21.207Z,6.96
2019-02-27T21:30:52.374Z,6.91
2019-02-27T21:33:22.007Z,6.79
2019-02-27T21:35:51.706Z,6.77
2019-02-27T21:38:21.345Z,6.75
2019-02-27T21:40:50.644Z,6.80
2019-02-27T21:43:25.377Z,6.73
2019-02-27T21:45:51.302Z,6.66
2019-02-27T21:48:23.413Z,6.52
2019-02-27T21:50:52.222Z,6.46
2019-02-27T21:53:21.799Z,6.38
2019-02-27T21:55:51.109Z,6.35
2019-02-27T21:58:20.819Z,6.36
2019-02-27T22:00:50.133Z,6.21
2019-02-27T22:03:19.474Z,6.10
2019-02-27T22:05:52.651Z,6.12
2019-02-27T22:08:20.452Z,6.10
2019-02-27T22:10:53.322Z,6.11
2019-02-27T22:13:28.845Z,6.04
2019-02-27T22:15:55.875Z,5.95
2019-02-27T22:18:23.541Z,5.91
2019-02-27T22:20:53.187Z,5.80
2019-02-27T22:23:22.502Z,5.77
2019-02-27T22:25:51.843Z,5.74
2019-02-27T22:28:21.186Z,5.71
2019-02-27T22:30:50.524Z,5.70
2019-02-27T22:33:23.051Z,5.70
2019-02-27T22:35:51.475Z,5.64
2019-02-27T22:38:25.849Z,5.60
2019-02-27T22:40:52.230Z,5.54
2019-02-27T22:43:21.979Z,5.56
2019-02-27T22:45:52.324Z,5.57
2019-02-27T22:48:21.736Z,5.52
2019-02-27T22:50:51.049Z,5.50
2019-02-27T22:53:20.380Z,5.40
2019-02-27T22:55:49.971Z,5.36
2019-02-27T22:58:19.793Z,5.42
2019-02-27T23:01:01.322Z,5.34
2019-02-27T23:03:38.581Z,5.31
2019-02-27T23:06:09.269Z,5.21
2019-02-27T23:08:39.597Z,5.06
2019-02-27T23:11:09.404Z,4.97
2019-02-27T23:13:39.006Z,4.96
2019-02-27T23:16:08.341Z,4.89
2019-02-27T23:18:40.250Z,4.85
2019-02-27T23:21:08.990Z,4.82
2019-02-27T23:23:38.697Z,4.79
2019-02-27T23:26:08.029Z,4.73
2019-02-27T23:28:37.760Z,4.71
2019-02-27T23:31:07.078Z,4.62
2019-02-27T23:33:36.754Z,4.62
2019-02-27T23:36:06.533Z,4.65
2019-02-27T23:38:35.946Z,4.62
2019-02-27T23:41:05.291Z,4.64
2019-02-27T23:43:35.091Z,4.55
2019-02-27T23:46:05.131Z,4.52
2019-02-27T23:48:36.224Z,4.42
2019-02-27T23:51:05.526Z,4.42
2019-02-27T23:53:35.170Z,4.44
2019-02-27T23:56:05.147Z,4.39
2019-02-27T23:58:34.514Z,4.38
